Time;durP1;ratioP1;P1;durP2;ratioP2;P2;SDS_P1;SDS_P2;PMS_P1;PMS_P2;Temp;Humidity;BMP_temperature;BMP_pressure;BME280_temperature;BME280_humidity;BME280_pressure;Samples;Min_cycle;Max_cycle;Signal;HPM_P1;HPM_P2
2021/12/24 00:01:36;;;;;;;0.93;0.40;;;8.70;99.90;;;;;;5054465;28;20028;-72
2021/12/24 00:04:02;;;;;;;0.30;0.30;;;8.80;99.90;;;;;;5054031;28;20442;-70
2021/12/24 00:06:28;;;;;;;0.30;0.30;;;8.80;99.90;;;;;;5054285;28;20112;-70
2021/12/24 00:08:55;;;;;;;0.00;0.00;;;8.80;99.90;;;;;;5054322;28;20036;-71
2021/12/24 00:11:21;;;;;;;1.02;0.47;;;8.90;99.90;;;;;;5054196;28;20033;-71
2021/12/24 00:13:50;;;;;;;1.20;0.30;;;8.90;99.90;;;;;;5036085;28;20056;-71
2021/12/24 00:16:22;;;;;;;0.30;0.30;;;9.00;99.90;;;;;;5052957;28;20029;-71
2021/12/24 00:18:55;;;;;;;0.43;0.43;;;9.00;99.90;;;;;;5052671;28;20029;-71
2021/12/24 00:35:34;;;;;;;0.13;0.13;;;9.20;99.90;;;;;;5053484;28;20223;-71
2021/12/24 00:38:05;;;;;;;2.85;1.70;;;9.20;99.90;;;;;;5053623;28;20040;-71
2021/12/24 00:40:44;;;;;;;1.02;0.95;;;9.30;99.90;;;;;;5053546;28;20052;-70
2021/12/24 00:43:13;;;;;;;0.50;0.50;;;9.30;99.90;;;;;;5052411;28;20106;-71
2021/12/24 00:45:43;;;;;;;0.28;0.17;;;9.30;99.90;;;;;;5053326;28;20025;-71
2021/12/24 00:48:13;;;;;;;0.00;0.00;;;9.40;99.90;;;;;;5052547;28;20044;-71
2021/12/24 00:56:09;;;;;;;0.10;0.10;;;9.40;99.90;;;;;;5052035;28;20071;-72
2021/12/24 00:58:36;;;;;;;0.20;0.20;;;9.50;99.90;;;;;;5052121;28;20041;-72
2021/12/24 01:01:05;;;;;;;0.10;0.10;;;9.50;99.90;;;;;;5051853;28;20029;-71
2021/12/24 01:03:31;;;;;;;0.00;0.00;;;9.50;99.90;;;;;;5051867;28;20135;-71
2021/12/24 01:05:57;;;;;;;0.00;0.00;;;9.50;99.90;;;;;;5052939;28;20088;-71
2021/12/24 01:08:23;;;;;;;0.52;0.52;;;9.60;99.90;;;;;;5053143;28;20493;-73
2021/12/24 01:11:00;;;;;;;2.35;1.10;;;9.60;99.90;;;;;;5053085;28;20116;-71
2021/12/24 01:13:27;;;;;;;0.20;0.13;;;9.50;99.90;;;;;;5051724;28;20087;-72
2021/12/24 01:16:06;;;;;;;0.15;0.15;;;9.50;99.90;;;;;;5051535;28;20541;-72
2021/12/24 01:21:23;;;;;;;0.20;0.20;;;9.40;99.90;;;;;;5052795;28;20037;-71
2021/12/24 01:23:52;;;;;;;0.00;0.00;;;9.40;99.90;;;;;;5051547;28;20087;-71
2021/12/24 01:27:15;;;;;;;0.70;0.68;;;9.40;99.90;;;;;;5052570;28;20078;-71
2021/12/24 01:29:41;;;;;;;3.92;2.28;;;9.40;99.90;;;;;;5041261;28;20049;-71
2021/12/24 01:37:53;;;;;;;0.00;0.00;;;9.40;99.90;;;;;;5051717;28;20044;-72
2021/12/24 01:38:09;;;;;;;0.00;0.00;;;9.50;99.90;;;;;;5052374;28;20044;-72
2021/12/24 01:43:21;;;;;;;0.00;0.00;;;9.40;99.90;;;;;;5052407;28;20482;-72
2021/12/24 01:45:53;;;;;;;0.00;0.00;;;9.40;99.90;;;;;;5051412;28;20025;-72
2021/12/24 01:48:20;;;;;;;0.00;0.00;;;9.50;99.90;;;;;;5050996;28;20037;-70
2021/12/24 01:50:48;;;;;;;0.32;0.32;;;9.40;99.90;;;;;;5050901;28;20028;-70
2021/12/24 01:53:21;;;;;;;0.00;0.00;;;9.50;99.90;;;;;;5052486;28;20044;-71
2021/12/24 01:55:50;;;;;;;0.15;0.15;;;9.50;99.90;;;;;;5050674;28;20036;-71
2021/12/24 01:58:23;;;;;;;1.73;1.63;;;9.50;99.90;;;;;;5051879;28;20025;-71
2021/12/24 02:00:51;;;;;;;1.65;0.68;;;9.60;99.90;;;;;;5051690;28;20489;-72
2021/12/24 02:03:18;;;;;;;0.30;0.30;;;9.50;99.90;;;;;;5051034;28;20033;-72
2021/12/24 02:05:49;;;;;;;0.65;0.65;;;9.50;99.90;;;;;;5050493;28;20059;-71
2021/12/24 02:08:16;;;;;;;0.00;0.00;;;9.50;99.90;;;;;;5052043;28;20123;-72
2021/12/24 02:10:43;;;;;;;0.05;0.05;;;9.50;99.90;;;;;;5050584;28;20033;-72
2021/12/24 02:13:10;;;;;;;0.35;0.35;;;9.50;99.90;;;;;;5050564;28;20055;-73
2021/12/24 02:28:54;;;;;;;0.00;0.00;;;9.60;99.90;;;;;;5051818;28;20466;-72
2021/12/24 02:31:26;;;;;;;0.00;0.00;;;9.50;99.90;;;;;;5052017;28;20056;-71
2021/12/24 02:33:53;;;;;;;0.10;0.10;;;9.50;99.90;;;;;;5034166;28;20033;-72
2021/12/24 02:36:21;;;;;;;0.30;0.30;;;9.50;99.90;;;;;;5050435;28;20029;-71
2021/12/24 02:38:49;;;;;;;0.10;0.10;;;9.50;99.90;;;;;;5050082;28;20078;-71
2021/12/24 02:41:16;;;;;;;0.00;0.00;;;9.40;99.90;;;;;;5051422;28;20454;-71
2021/12/24 02:43:42;;;;;;;0.22;0.22;;;9.30;99.90;;;;;;5051377;28;20440;-71
2021/12/24 02:46:23;;;;;;;0.10;0.10;;;9.40;99.90;;;;;;5051134;28;20057;-71
2021/12/24 02:54:10;;;;;;;0.10;0.10;;;9.40;99.90;;;;;;5050411;28;19913;-71
2021/12/24 02:56:38;;;;;;;0.10;0.10;;;9.40;99.90;;;;;;5050243;28;20033;-71
2021/12/24 02:59:11;;;;;;;0.50;0.50;;;9.50;99.90;;;;;;5052339;28;20032;-71
2021/12/24 03:01:41;;;;;;;0.38;0.38;;;9.50;99.90;;;;;;5054067;28;20056;-71
2021/12/24 03:04:09;;;;;;;1.35;0.45;;;9.50;99.90;;;;;;5053880;28;20543;-71
2021/12/24 03:06:39;;;;;;;0.32;0.30;;;9.50;99.90;;;;;;5054396;28;20039;-71
2021/12/24 03:09:08;;;;;;;0.10;0.10;;;9.50;99.90;;;;;;5053930;28;20437;-71
2021/12/24 03:11:35;;;;;;;0.55;0.55;;;9.40;99.90;;;;;;5070894;28;20106;-71
2021/12/24 03:14:04;;;;;;;0.00;0.00;;;9.50;99.90;;;;;;5053919;28;20056;-71
2021/12/24 03:16:31;;;;;;;0.00;0.00;;;9.40;99.90;;;;;;5054209;28;20131;-71
2021/12/24 03:18:57;;;;;;;0.00;0.00;;;9.40;99.90;;;;;;5053719;28;20033;-71
2021/12/24 03:21:32;;;;;;;0.40;0.40;;;9.40;99.90;;;;;;5053990;28;20047;-71
2021/12/24 03:26:38;;;;;;;;;;;9.40;99.90;;;;;;5055600;28;20808;-71
2021/12/24 03:29:07;;;;;;;1.95;1.40;;;9.40;99.90;;;;;;5053750;28;20388;-71
2021/12/24 03:31:36;;;;;;;0.75;0.75;;;9.40;99.90;;;;;;5054774;28;20036;-71
2021/12/24 03:34:05;;;;;;;0.00;0.00;;;9.30;99.90;;;;;;5054817;28;20496;-71
2021/12/24 03:36:30;;;;;;;0.10;0.10;;;9.30;99.90;;;;;;5054530;28;20032;-71
2021/12/24 03:38:57;;;;;;;0.10;0.10;;;9.30;99.90;;;;;;5054939;28;20389;-71
2021/12/24 03:41:24;;;;;;;0.00;0.00;;;9.30;99.90;;;;;;5036908;28;20047;-71
2021/12/24 03:43:51;;;;;;;0.13;0.13;;;9.40;99.90;;;;;;5053539;28;20025;-72
2021/12/24 03:46:21;;;;;;;0.10;0.10;;;9.40;99.90;;;;;;5053383;28;20049;-71
2021/12/24 03:48:53;;;;;;;0.17;0.17;;;9.50;99.90;;;;;;5069918;28;20402;-71
2021/12/24 03:51:42;;;;;;;0.55;0.30;;;9.30;99.90;;;;;;5037420;28;20298;-71
2021/12/24 03:56:52;;;;;;;0.00;0.00;;;9.30;99.90;;;;;;5053159;28;20035;-71
2021/12/24 03:59:18;;;;;;;0.00;0.00;;;9.40;99.90;;;;;;5054726;28;20029;-71
2021/12/24 04:01:44;;;;;;;1.02;0.88;;;9.50;99.90;;;;;;5053308;28;20389;-72
2021/12/24 04:04:10;;;;;;;0.00;0.00;;;9.30;99.90;;;;;;5054013;28;20039;-71
2021/12/24 04:06:37;;;;;;;0.43;0.43;;;9.20;99.90;;;;;;5053187;28;20040;-71
2021/12/24 04:09:07;;;;;;;0.40;0.40;;;9.30;99.90;;;;;;5053459;28;20025;-70
2021/12/24 04:11:34;;;;;;;0.00;0.00;;;9.30;99.90;;;;;;5054481;28;20704;-72
2021/12/24 04:14:00;;;;;;;0.00;0.00;;;9.30;99.90;;;;;;5054079;28;20136;-71
2021/12/24 04:16:28;;;;;;;0.00;0.00;;;9.20;99.90;;;;;;5053051;28;20037;-72
2021/12/24 04:26:50;;;;;;;0.00;0.00;;;9.00;99.90;;;;;;5052951;28;20063;-71
2021/12/24 04:29:15;;;;;;;0.32;0.30;;;9.00;99.90;;;;;;5052563;28;20053;-72
2021/12/24 04:31:52;;;;;;;3.20;1.75;;;9.00;99.90;;;;;;5053825;28;20056;-71
2021/12/24 04:34:25;;;;;;;0.10;0.10;;;9.00;99.90;;;;;;5052858;28;20112;-71
2021/12/24 05:01:20;;;;;;;0.03;0.03;;;9.00;99.90;;;;;;5053059;28;20032;-71
2021/12/24 05:03:47;;;;;;;1.13;1.02;;;9.00;99.90;;;;;;5052192;28;20079;-72
2021/12/24 05:06:30;;;;;;;0.05;0.05;;;8.90;99.90;;;;;;5053302;28;20048;-71
2021/12/24 05:08:59;;;;;;;1.00;1.00;;;8.90;99.90;;;;;;5051971;28;20074;-71
2021/12/24 05:11:26;;;;;;;1.55;1.10;;;8.90;99.90;;;;;;5051790;28;20493;-71
2021/12/24 05:13:54;;;;;;;0.10;0.10;;;9.10;99.90;;;;;;5051737;28;20041;-71
2021/12/24 05:16:38;;;;;;;0.32;0.32;;;9.10;99.90;;;;;;5051632;28;20033;-71
2021/12/24 05:21:52;;;;;;;0.10;0.10;;;9.10;99.90;;;;;;5051898;28;20048;-71
2021/12/24 05:24:25;;;;;;;0.03;0.03;;;9.10;99.90;;;;;;5052845;28;20079;-71
2021/12/24 05:26:56;;;;;;;0.45;0.45;;;9.10;99.90;;;;;;5052900;28;20322;-71
2021/12/24 05:29:22;;;;;;;0.10;0.10;;;9.10;99.90;;;;;;5053158;28;20025;-72
2021/12/24 05:31:49;;;;;;;0.90;0.90;;;9.10;99.90;;;;;;5052560;28;20041;-71
2021/12/24 05:34:17;;;;;;;0.57;0.57;;;9.00;99.90;;;;;;5052759;28;20473;-71
2021/12/24 05:36:45;;;;;;;0.10;0.10;;;9.10;99.90;;;;;;5051697;28;20039;-72
2021/12/24 05:39:12;;;;;;;0.28;0.22;;;9.10;99.90;;;;;;5052462;28;20473;-72
2021/12/24 05:41:39;;;;;;;0.80;0.80;;;9.00;99.90;;;;;;5051335;28;20052;-72
2021/12/24 05:44:07;;;;;;;0.10;0.10;;;9.10;99.90;;;;;;5052337;28;20155;-72
2021/12/24 05:46:33;;;;;;;0.10;0.10;;;9.00;99.90;;;;;;5052360;28;20045;-72
2021/12/24 05:48:58;;;;;;;0.85;0.65;;;8.90;99.90;;;;;;5052184;28;20036;-72
2021/12/24 05:51:24;;;;;;;0.00;0.00;;;8.70;99.90;;;;;;5051215;28;20041;-72
2021/12/24 05:53:50;;;;;;;0.40;0.40;;;8.50;99.90;;;;;;5050978;28;20055;-72
2021/12/24 05:56:16;;;;;;;1.15;0.65;;;8.50;99.90;;;;;;5052357;28;20492;-72
2021/12/24 05:58:42;;;;;;;0.50;0.50;;;8.40;99.90;;;;;;5051065;28;20021;-72
2021/12/24 06:01:07;;;;;;;0.03;0.03;;;8.40;99.90;;;;;;5051755;28;20484;-72
2021/12/24 06:03:33;;;;;;;0.22;0.22;;;8.30;99.90;;;;;;5052068;28;20453;-72
2021/12/24 06:05:59;;;;;;;3.20;2.83;;;8.30;99.90;;;;;;5052035;28;20131;-72
2021/12/24 06:08:25;;;;;;;0.15;0.15;;;8.20;99.90;;;;;;5050901;28;20393;-72
2021/12/24 06:10:51;;;;;;;0.30;0.30;;;8.20;99.90;;;;;;5051041;28;20474;-72
2021/12/24 06:13:17;;;;;;;0.70;0.52;;;8.10;99.90;;;;;;5052123;28;20033;-71
2021/12/24 06:15:46;;;;;;;0.10;0.10;;;8.10;99.90;;;;;;5052158;28;20040;-72
2021/12/24 06:18:22;;;;;;;0.03;0.03;;;8.10;99.90;;;;;;5051718;28;20044;-71
2021/12/24 06:20:49;;;;;;;0.47;0.28;;;8.10;99.90;;;;;;5051723;28;20041;-71
2021/12/24 06:23:15;;;;;;;0.82;0.35;;;8.00;99.90;;;;;;5051810;28;20028;-71
2021/12/24 06:25:41;;;;;;;0.15;0.15;;;8.10;99.90;;;;;;5050621;28;20108;-71
2021/12/24 06:28:07;;;;;;;0.50;0.50;;;8.10;99.90;;;;;;5050318;28;20112;-71
2021/12/24 06:30:32;;;;;;;0.47;0.47;;;8.20;99.90;;;;;;5052030;28;20025;-71
2021/12/24 06:33:00;;;;;;;0.10;0.10;;;8.20;99.90;;;;;;5051526;28;20032;-71
2021/12/24 06:35:26;;;;;;;0.55;0.45;;;8.30;99.90;;;;;;5050461;28;20032;-71
2021/12/24 06:37:56;;;;;;;0.40;0.40;;;8.30;99.90;;;;;;5050625;28;20036;-72
2021/12/24 06:40:23;;;;;;;3.28;1.65;;;8.30;99.90;;;;;;5051570;28;20029;-71
2021/12/24 06:42:49;;;;;;;0.85;0.85;;;8.40;99.90;;;;;;5051626;28;20389;-72
2021/12/24 06:45:19;;;;;;;0.30;0.30;;;8.50;99.90;;;;;;5051717;28;20040;-72
2021/12/24 06:47:46;;;;;;;0.50;0.50;;;8.50;99.90;;;;;;5034129;28;20489;-73
2021/12/24 06:50:13;;;;;;;0.35;0.35;;;8.60;99.90;;;;;;5051737;28;20152;-70
2021/12/24 06:52:39;;;;;;;0.20;0.20;;;8.60;99.90;;;;;;5051094;28;20128;-68
2021/12/24 06:55:05;;;;;;;0.00;0.00;;;8.70;99.90;;;;;;5051685;28;20509;-69
2021/12/24 06:57:31;;;;;;;1.38;1.02;;;8.80;99.90;;;;;;5050330;28;20112;-68
2021/12/24 06:59:57;;;;;;;3.47;0.73;;;8.90;99.90;;;;;;5050045;28;20119;-68
2021/12/24 07:02:22;;;;;;;0.60;0.60;;;8.90;99.90;;;;;;5050310;28;20040;-68
2021/12/24 07:04:48;;;;;;;0.03;0.03;;;8.90;99.90;;;;;;5053785;28;20495;-68
2021/12/24 07:07:14;;;;;;;0.03;0.03;;;9.00;99.90;;;;;;5061786;28;20032;-67
2021/12/24 07:09:42;;;;;;;0.55;0.55;;;9.00;99.90;;;;;;5070051;28;20024;-67
2021/12/24 07:12:15;;;;;;;0.20;0.20;;;8.90;99.90;;;;;;5069587;28;20169;-69
2021/12/24 07:14:42;;;;;;;2.38;0.93;;;8.90;99.90;;;;;;5055651;28;20025;-70
2021/12/24 07:17:09;;;;;;;0.13;0.13;;;9.00;99.90;;;;;;5041853;28;20049;-69
2021/12/24 07:19:36;;;;;;;0.25;0.25;;;9.10;99.90;;;;;;5059439;28;20029;-70
2021/12/24 07:22:03;;;;;;;1.50;0.73;;;9.20;99.90;;;;;;5057762;28;20036;-71
2021/12/24 07:24:28;;;;;;;0.22;0.22;;;9.00;99.90;;;;;;5051280;28;20086;-70
2021/12/24 07:26:55;;;;;;;0.88;0.75;;;9.00;99.90;;;;;;5050944;28;20028;-67
2021/12/24 07:29:21;;;;;;;0.20;0.20;;;9.00;99.90;;;;;;5051140;28;20095;-68
2021/12/24 07:31:46;;;;;;;0.85;0.85;;;9.20;99.90;;;;;;5049957;28;20371;-69
2021/12/24 07:34:12;;;;;;;0.10;0.10;;;9.10;99.90;;;;;;5052205;28;20513;-66
2021/12/24 07:36:38;;;;;;;0.15;0.15;;;9.20;99.90;;;;;;5071616;28;20508;-67
2021/12/24 07:39:04;;;;;;;0.77;0.77;;;9.20;99.90;;;;;;5071108;28;20063;-68
2021/12/24 07:41:30;;;;;;;0.80;0.80;;;9.20;99.90;;;;;;5070916;28;20512;-67
2021/12/24 07:43:57;;;;;;;0.13;0.13;;;9.10;99.90;;;;;;5071341;28;20036;-70
2021/12/24 07:46:30;;;;;;;0.05;0.05;;;9.00;99.90;;;;;;5074607;28;20405;-67
2021/12/24 07:49:01;;;;;;;0.17;0.17;;;9.00;99.90;;;;;;5074868;28;20097;-70
2021/12/24 07:54:11;;;;;;;0.00;0.00;;;8.90;99.90;;;;;;5068664;28;20056;-69
2021/12/24 07:56:37;;;;;;;1.10;1.10;;;8.90;99.90;;;;;;5074331;28;20515;-68
2021/12/24 07:59:03;;;;;;;0.10;0.10;;;8.90;99.90;;;;;;5074258;28;20397;-68
2021/12/24 08:01:29;;;;;;;0.10;0.10;;;8.90;99.90;;;;;;5073003;28;20033;-67
2021/12/24 08:03:56;;;;;;;0.10;0.10;;;8.90;99.90;;;;;;5074286;28;20065;-67
2021/12/24 08:06:25;;;;;;;0.25;0.25;;;9.00;99.90;;;;;;5052958;28;20075;-64
2021/12/24 08:08:51;;;;;;;3.20;1.25;;;8.90;99.90;;;;;;5052957;28;20082;-64
2021/12/24 08:11:16;;;;;;;0.75;0.75;;;9.00;99.90;;;;;;5054154;28;20032;-67
2021/12/24 08:13:43;;;;;;;0.50;0.50;;;9.00;99.90;;;;;;5053332;28;20037;-66
2021/12/24 08:16:09;;;;;;;1.40;1.30;;;9.00;99.90;;;;;;5054098;28;20462;-66
2021/12/24 08:18:37;;;;;;;0.57;0.57;;;8.80;99.90;;;;;;5053054;28;20478;-67
2021/12/24 08:21:04;;;;;;;0.10;0.10;;;8.80;99.90;;;;;;5052754;28;20036;-64
2021/12/24 08:23:30;;;;;;;0.10;0.10;;;8.70;99.90;;;;;;5054149;28;20386;-65
2021/12/24 08:25:58;;;;;;;0.10;0.10;;;8.70;99.90;;;;;;5069611;28;20029;-66
2021/12/24 08:28:26;;;;;;;0.30;0.30;;;8.70;99.90;;;;;;5053718;28;20749;-66
2021/12/24 08:30:53;;;;;;;0.20;0.20;;;8.70;99.90;;;;;;5053669;28;20037;-67
2021/12/24 08:33:19;;;;;;;0.98;0.98;;;8.70;99.90;;;;;;5052446;28;20021;-65
2021/12/24 08:35:45;;;;;;;0.20;0.20;;;8.80;99.90;;;;;;5068858;28;20110;-66
2021/12/24 08:38:10;;;;;;;0.20;0.20;;;8.80;99.90;;;;;;5073677;28;20021;-66
2021/12/24 08:40:37;;;;;;;0.05;0.05;;;8.70;99.90;;;;;;5073848;28;20466;-67
2021/12/24 08:43:03;;;;;;;0.30;0.30;;;8.70;99.90;;;;;;5073397;28;20028;-66
2021/12/24 08:45:29;;;;;;;0.30;0.30;;;8.70;99.90;;;;;;5073690;28;20033;-66
2021/12/24 08:47:55;;;;;;;0.50;0.50;;;8.80;99.90;;;;;;5073521;28;20082;-66
2021/12/24 08:50:21;;;;;;;0.10;0.10;;;8.80;99.90;;;;;;5072845;28;20033;-65
2021/12/24 08:52:47;;;;;;;0.45;0.45;;;8.80;99.90;;;;;;5059704;28;20424;-66
2021/12/24 08:55:15;;;;;;;1.02;0.65;;;8.80;99.90;;;;;;5052245;28;20029;-66
2021/12/24 08:57:42;;;;;;;0.20;0.20;;;8.90;99.90;;;;;;5052192;28;20103;-68
2021/12/24 09:00:13;;;;;;;0.22;0.22;;;8.90;99.90;;;;;;5051664;28;20051;-67
2021/12/24 09:02:39;;;;;;;2.25;1.35;;;8.90;99.90;;;;;;5052075;28;20413;-67
2021/12/24 09:05:08;;;;;;;1.23;1.20;;;8.90;99.90;;;;;;5051959;28;20060;-66
2021/12/24 09:07:34;;;;;;;1.98;1.80;;;8.80;99.90;;;;;;5068431;28;20029;-66
2021/12/24 09:10:00;;;;;;;0.63;0.47;;;8.90;99.90;;;;;;5053318;28;20032;-68
2021/12/24 09:12:26;;;;;;;0.30;0.30;;;8.80;99.90;;;;;;5052001;28;20082;-67
2021/12/24 09:14:53;;;;;;;0.38;0.38;;;8.80;99.90;;;;;;5059078;28;20162;-63
2021/12/24 09:17:21;;;;;;;0.57;0.57;;;8.80;99.90;;;;;;5072912;28;20044;-65
2021/12/24 09:19:50;;;;;;;0.28;0.28;;;8.80;99.90;;;;;;5069404;28;20516;-64
2021/12/24 09:22:18;;;;;;;0.15;0.15;;;8.80;99.90;;;;;;5072917;28;20048;-67
2021/12/24 09:24:50;;;;;;;0.00;0.00;;;8.90;99.90;;;;;;5055450;28;20389;-67
2021/12/24 09:27:16;;;;;;;0.55;0.55;;;8.80;99.90;;;;;;5071540;28;20040;-66
2021/12/24 09:29:42;;;;;;;0.20;0.20;;;8.90;99.90;;;;;;5071509;28;20029;-67
2021/12/24 09:32:15;;;;;;;0.20;0.20;;;9.10;99.90;;;;;;5071154;28;20039;-65
2021/12/24 09:34:41;;;;;;;0.32;0.32;;;9.00;99.90;;;;;;5071263;28;20040;-67
2021/12/24 09:37:07;;;;;;;0.43;0.43;;;9.00;99.90;;;;;;5069934;28;20372;-67
2021/12/24 09:39:34;;;;;;;3.50;1.08;;;9.10;99.90;;;;;;5061778;28;20041;-67
2021/12/24 09:42:01;;;;;;;0.00;0.00;;;9.00;99.90;;;;;;5060912;28;20029;-66
2021/12/24 09:44:28;;;;;;;0.73;0.73;;;9.10;99.90;;;;;;5059199;28;20040;-65
2021/12/24 09:46:55;;;;;;;1.55;1.45;;;9.00;99.90;;;;;;5058962;28;20045;-65
2021/12/24 09:49:22;;;;;;;0.10;0.10;;;9.00;99.90;;;;;;5062249;28;20586;-65
2021/12/24 09:51:51;;;;;;;0.17;0.17;;;9.00;99.90;;;;;;5062540;28;20025;-65
2021/12/24 09:54:22;;;;;;;0.68;0.68;;;9.10;99.90;;;;;;5066596;28;20048;-65
2021/12/24 09:56:51;;;;;;;0.73;0.73;;;9.00;99.90;;;;;;5069235;28;20028;-67
2021/12/24 09:59:17;;;;;;;0.15;0.15;;;9.00;99.90;;;;;;5052473;28;20033;-65
2021/12/24 10:01:55;;;;;;;0.05;0.05;;;9.00;99.90;;;;;;5052050;28;20044;-66
2021/12/24 10:04:24;;;;;;;1.55;1.45;;;9.00;99.90;;;;;;5060108;28;20477;-67
2021/12/24 10:07:03;;;;;;;0.10;0.10;;;9.00;99.90;;;;;;5061526;28;20054;-67
2021/12/24 10:09:45;;;;;;;0.13;0.13;;;8.90;99.90;;;;;;5064137;28;20024;-66
2021/12/24 10:12:31;;;;;;;0.30;0.30;;;8.90;99.90;;;;;;5055355;28;20477;-66
2021/12/24 10:14:59;;;;;;;0.50;0.50;;;8.90;99.90;;;;;;5076659;28;20135;-64
2021/12/24 10:17:35;;;;;;;0.35;0.35;;;8.90;99.90;;;;;;5092021;28;20032;-64
2021/12/24 10:20:14;;;;;;;0.30;0.30;;;8.90;99.90;;;;;;5090920;28;20354;-64
2021/12/24 10:22:50;;;;;;;0.20;0.20;;;8.90;99.90;;;;;;5092333;28;20433;-63
2021/12/24 10:25:23;;;;;;;0.77;0.77;;;8.90;99.90;;;;;;5091552;28;20028;-63
2021/12/24 10:27:48;;;;;;;0.00;0.00;;;8.90;99.90;;;;;;5092353;28;20036;-63
2021/12/24 10:30:23;;;;;;;0.25;0.25;;;9.00;99.90;;;;;;5091839;28;20469;-63
2021/12/24 10:32:53;;;;;;;0.10;0.10;;;9.00;99.90;;;;;;5090653;28;20415;-63
2021/12/24 10:35:32;;;;;;;0.15;0.15;;;9.00;99.90;;;;;;5091692;28;20036;-62
2021/12/24 10:38:20;;;;;;;2.67;1.55;;;8.90;99.90;;;;;;5078898;28;20034;-64
2021/12/24 10:40:55;;;;;;;0.00;0.00;;;8.90;99.90;;;;;;5071497;28;20063;-63
2021/12/24 10:43:31;;;;;;;0.20;0.20;;;8.90;99.90;;;;;;5066658;28;20610;-65
2021/12/24 10:46:16;;;;;;;0.17;0.17;;;9.00;99.90;;;;;;5070253;28;20055;-65
2021/12/24 10:49:08;;;;;;;1.63;1.52;;;9.00;99.90;;;;;;5071698;28;20052;-65
2021/12/24 10:51:54;;;;;;;;;;;9.00;99.90;;;;;;5070776;28;20054;-65
2021/12/24 10:54:20;;;;;;;0.00;0.00;;;8.90;99.90;;;;;;5070264;28;19962;-66
2021/12/24 10:56:46;;;;;;;0.00;0.00;;;8.90;99.90;;;;;;5071339;28;20056;-64
2021/12/24 10:59:12;;;;;;;0.88;0.85;;;8.90;99.90;;;;;;5071308;28;20039;-64
2021/12/24 11:01:38;;;;;;;3.13;0.82;;;8.90;99.90;;;;;;5070120;28;20085;-65
2021/12/24 11:04:04;;;;;;;0.28;0.28;;;8.90;99.90;;;;;;5070206;28;20037;-65
2021/12/24 11:06:32;;;;;;;0.10;0.10;;;9.00;99.90;;;;;;5086314;28;20059;-65
2021/12/24 11:08:59;;;;;;;0.85;0.85;;;9.00;99.90;;;;;;5091403;28;20484;-64
2021/12/24 11:11:38;;;;;;;0.10;0.10;;;9.00;99.90;;;;;;5090121;28;20032;-65
2021/12/24 11:14:04;;;;;;;0.22;0.22;;;9.00;99.90;;;;;;5098378;28;20373;-65
2021/12/24 11:16:33;;;;;;;0.25;0.25;;;9.10;99.90;;;;;;5090301;28;20035;-64
2021/12/24 11:19:02;;;;;;;1.00;1.00;;;9.10;99.90;;;;;;5090607;28;20486;-64
2021/12/24 11:21:31;;;;;;;0.13;0.13;;;9.20;99.90;;;;;;5086803;28;20143;-64
2021/12/24 11:23:57;;;;;;;24.85;2.10;;;9.20;99.90;;;;;;5072437;28;20021;-64
2021/12/24 11:26:28;;;;;;;0.08;0.08;;;9.10;99.90;;;;;;5073857;28;20040;-65
2021/12/24 11:28:58;;;;;;;0.15;0.15;;;9.10;99.90;;;;;;5040724;28;20040;-65
2021/12/24 11:31:32;;;;;;;0.20;0.20;;;9.20;99.90;;;;;;5074841;28;20139;-63
2021/12/24 11:33:59;;;;;;;0.20;0.20;;;9.10;99.90;;;;;;5074950;28;20106;-65
2021/12/24 11:36:28;;;;;;;1.75;0.38;;;9.20;99.90;;;;;;5074906;28;20035;-65
2021/12/24 11:39:00;;;;;;;0.63;0.63;;;9.10;99.90;;;;;;5074664;28;20487;-65
2021/12/24 11:41:31;;;;;;;0.00;0.00;;;9.10;99.90;;;;;;5074837;28;20024;-65
2021/12/24 11:43:57;;;;;;;0.20;0.20;;;9.10;99.90;;;;;;5074437;28;20043;-63
2021/12/24 11:46:25;;;;;;;0.35;0.28;;;9.10;99.90;;;;;;5074526;28;20052;-65
2021/12/24 11:48:54;;;;;;;0.65;0.65;;;9.10;99.90;;;;;;5073626;28;20064;-65
2021/12/24 11:51:34;;;;;;;0.17;0.17;;;9.20;99.90;;;;;;5073394;28;20473;-65
2021/12/24 11:54:04;;;;;;;3.13;1.55;;;9.20;99.90;;;;;;5074855;28;20040;-65
2021/12/24 11:56:50;;;;;;;0.20;0.20;;;9.20;99.90;;;;;;5072983;28;20591;-67
2021/12/24 11:59:18;;;;;;;0.95;0.95;;;9.20;99.90;;;;;;5074494;28;20481;-69
2021/12/24 12:01:44;;;;;;;0.00;0.00;;;9.30;99.90;;;;;;5072935;28;20040;-65
2021/12/24 12:04:23;;;;;;;0.40;0.40;;;9.20;99.90;;;;;;5074615;28;20478;-65
2021/12/24 12:06:50;;;;;;;0.05;0.05;;;9.20;99.90;;;;;;5073357;28;20028;-66
2021/12/24 12:09:16;;;;;;;0.17;0.17;;;9.30;99.90;;;;;;5074103;28;20431;-67
2021/12/24 12:11:57;;;;;;;0.00;0.00;;;9.40;99.90;;;;;;5074566;28;20032;-66
2021/12/24 12:14:25;;;;;;;0.25;0.25;;;9.40;99.90;;;;;;5073264;28;20060;-67
2021/12/24 12:17:00;;;;;;;0.52;0.47;;;9.30;99.90;;;;;;5074345;28;20078;-66
2021/12/24 12:22:45;;;;;;;0.00;0.00;;;9.20;99.90;;;;;;5073079;28;20032;-66
2021/12/24 12:25:34;;;;;;;0.00;0.00;;;9.20;99.90;;;;;;5073930;28;20033;-66
2021/12/24 12:28:03;;;;;;;0.20;0.20;;;9.30;99.90;;;;;;5073584;28;20039;-66
2021/12/24 12:30:39;;;;;;;0.10;0.10;;;9.30;99.90;;;;;;5073116;28;20030;-65
2021/12/24 12:33:22;;;;;;;0.00;0.00;;;9.30;99.90;;;;;;5073895;28;20020;-66
2021/12/24 12:35:58;;;;;;;0.32;0.32;;;9.30;99.90;;;;;;5074059;28;20039;-65
2021/12/24 12:38:39;;;;;;;1.02;0.25;;;9.30;99.90;;;;;;5072516;28;20051;-66
2021/12/24 12:41:32;;;;;;;0.45;0.45;;;9.20;99.90;;;;;;5072666;28;20039;-65
2021/12/24 12:44:13;;;;;;;0.17;0.17;;;9.20;99.90;;;;;;5072372;28;20051;-66
2021/12/24 12:46:43;;;;;;;0.52;0.35;;;9.30;99.90;;;;;;5073300;28;20047;-65
2021/12/24 12:49:19;;;;;;;6.07;1.10;;;9.20;99.90;;;;;;5071169;28;20064;-64
2021/12/24 12:52:10;;;;;;;3.30;2.28;;;9.20;99.90;;;;;;5053269;28;20021;-66
2021/12/24 12:54:58;;;;;;;0.40;0.40;;;9.30;99.90;;;;;;5066974;28;20385;-67
2021/12/24 12:57:24;;;;;;;0.10;0.10;;;9.20;99.90;;;;;;5056640;28;20504;-66
2021/12/24 13:00:08;;;;;;;0.60;0.60;;;9.20;99.90;;;;;;5052022;28;20037;-66
2021/12/24 13:05:43;;;;;;;0.20;0.20;;;9.30;99.90;;;;;;5053325;28;20094;-66
2021/12/24 13:08:20;;;;;;;0.13;0.13;;;9.30;99.90;;;;;;5053190;28;20096;-66
2021/12/24 13:11:32;;;;;;;0.90;0.90;;;9.20;99.90;;;;;;5068584;28;20033;-67
2021/12/24 13:14:02;;;;;;;0.38;0.38;;;9.30;99.90;;;;;;5043711;28;20374;-65
2021/12/24 13:16:37;;;;;;;0.40;0.40;;;9.30;99.90;;;;;;5071898;28;20028;-64
2021/12/24 13:25:02;;;;;;;0.10;0.10;;;9.30;99.90;;;;;;5072895;28;20374;-65
2021/12/24 13:27:37;;;;;;;0.40;0.40;;;9.40;99.90;;;;;;5071478;28;20044;-65
2021/12/24 13:30:21;;;;;;;0.00;0.00;;;9.40;99.90;;;;;;5071555;28;20060;-65
2021/12/24 13:32:54;;;;;;;0.65;0.65;;;9.40;99.90;;;;;;5072715;28;20080;-65
2021/12/24 13:35:31;;;;;;;0.80;0.75;;;9.40;99.90;;;;;;5055665;28;20033;-65
2021/12/24 13:37:58;;;;;;;0.00;0.00;;;9.30;99.90;;;;;;5052812;28;20121;-64
2021/12/24 13:40:31;;;;;;;0.30;0.30;;;9.30;99.90;;;;;;5052674;28;20048;-66
2021/12/24 13:43:07;;;;;;;0.32;0.32;;;9.40;99.90;;;;;;5050454;28;20033;-66
2021/12/24 13:45:37;;;;;;;0.43;0.43;;;9.40;99.90;;;;;;5051548;28;20595;-71
2021/12/24 13:48:18;;;;;;;0.00;0.00;;;9.30;99.90;;;;;;5052683;28;20037;-66
2021/12/24 13:56:38;;;;;;;0.10;0.10;;;9.20;99.90;;;;;;5051233;28;20032;-65
2021/12/24 13:59:04;;;;;;;0.52;0.52;;;9.20;99.90;;;;;;5051056;28;20025;-65
2021/12/24 14:01:32;;;;;;;0.30;0.30;;;9.20;99.90;;;;;;5050853;28;20033;-65
2021/12/24 14:04:01;;;;;;;4.85;0.65;;;9.20;99.90;;;;;;5050876;28;20037;-66
2021/12/24 14:06:47;;;;;;;0.00;0.00;;;9.30;99.90;;;;;;5051001;28;20370;-65
2021/12/24 14:09:21;;;;;;;0.00;0.00;;;9.20;99.90;;;;;;5050807;28;20747;-65
2021/12/24 14:11:50;;;;;;;0.10;0.10;;;9.30;99.90;;;;;;5017661;28;20115;-65
2021/12/24 14:14:26;;;;;;;0.20;0.20;;;9.20;99.90;;;;;;5052234;28;20044;-69
2021/12/24 14:19:32;;;;;;;0.00;0.00;;;9.20;99.90;;;;;;5051680;28;20548;-67
2021/12/24 14:22:16;;;;;;;1.52;1.17;;;9.20;99.90;;;;;;5070089;28;20079;-67
2021/12/24 14:25:00;;;;;;;0.00;0.00;;;9.20;99.90;;;;;;5070718;28;20043;-67
2021/12/24 14:27:29;;;;;;;0.43;0.43;;;9.20;99.90;;;;;;5070768;28;20109;-69
2021/12/24 14:30:09;;;;;;;0.10;0.10;;;9.20;99.90;;;;;;5071620;28;20075;-67
2021/12/24 14:32:48;;;;;;;0.25;0.25;;;9.20;99.90;;;;;;5071466;28;20425;-67
2021/12/24 14:35:23;;;;;;;2.28;2.08;;;9.10;99.90;;;;;;5071910;28;20547;-65
2021/12/24 14:38:07;;;;;;;0.20;0.20;;;9.00;99.90;;;;;;5053491;28;20032;-65
2021/12/24 14:40:36;;;;;;;1.65;0.95;;;9.00;99.90;;;;;;5070572;28;20054;-64
2021/12/24 14:43:33;;;;;;;2.28;1.13;;;9.00;99.90;;;;;;5070442;28;20399;-66
2021/12/24 14:46:05;;;;;;;0.35;0.35;;;9.00;99.90;;;;;;5069477;28;20045;-67
2021/12/24 14:48:31;;;;;;;0.10;0.10;;;8.90;99.90;;;;;;5070506;28;20050;-66
2021/12/24 14:51:00;;;;;;;5.00;0.85;;;8.90;99.90;;;;;;5081760;28;20085;-66
2021/12/24 14:53:39;;;;;;;0.08;0.08;;;8.90;99.90;;;;;;5093873;28;20519;-65
2021/12/24 14:56:17;;;;;;;0.10;0.10;;;8.80;99.90;;;;;;5098528;28;20052;-65
2021/12/24 14:58:55;;;;;;;0.28;0.28;;;8.80;99.90;;;;;;5098372;28;20105;-66
2021/12/24 15:01:26;;;;;;;0.10;0.10;;;8.80;99.90;;;;;;5098544;28;20111;-65
2021/12/24 15:04:06;;;;;;;0.20;0.20;;;8.90;99.90;;;;;;5098707;28;20077;-66
2021/12/24 15:06:39;;;;;;;0.20;0.20;;;8.90;99.90;;;;;;5098438;28;20035;-66